Time,TemperatureF,DewpointF,PressureIn,WindDirection,WindDirectionDegrees,WindSpeedMPH,WindSpeedGustMPH,Humidity,HourlyPrecipIn,Conditions,Clouds,dailyrainin,SoftwareType,DateUTC
2013-04-15 00:00:00,64.2,25.6,29.38,SSW,202,20.0,29.0,23,0.00,CLR,,0.00,WeatherDisplay:10.37,2013-04-15 07:00:00,
2013-04-15 00:45:00,63.5,23.9,29.39,SSW,204,13.0,24.0,22,0.00,CLR,,0.00,WeatherDisplay:10.37,2013-04-15 07:45:00,
2013-04-15 00:50:00,63.4,23.8,29.38,SSW,211,16.0,27.0,22,0.00,CLR,,0.00,WeatherDisplay:10.37,2013-04-15 07:50:00,
2013-04-15 00:55:00,63.0,24.5,29.38,SSW,202,15.0,26.0,23,0.00,CLR,,0.00,WeatherDisplay:10.37,2013-04-15 07:55:00,
2013-04-15 01:04:00,62.7,24.3,29.38,SSW,213,23.0,36.0,23,0.00,CLR,,0.00,WeatherDisplay:10.37,2013-04-15 08:04:00,
2013-04-15 01:10:00,62.9,24.5,29.38,SSW,211,26.0,33.0,23,0.00,CLR,,0.00,WeatherDisplay:10.37,2013-04-15 08:10:00,
2013-04-15 01:20:00,62.6,24.3,29.37,SW,218,23.0,31.0,23,0.00,CLR,,0.00,WeatherDisplay:10.37,2013-04-15 08:20:00,
2013-04-15 01:30:00,62.7,24.3,29.37,SW,217,24.0,33.0,23,0.00,CLR,,0.00,WeatherDisplay:10.37,2013-04-15 08:30:00,
2013-04-15 01:40:00,62.4,24.1,29.37,SW,223,20.0,28.0,23,0.00,CLR,,0.00,WeatherDisplay:10.37,2013-04-15 08:40:00,
2013-04-15 01:50:00,62.8,24.4,29.37,SW,231,28.0,38.0,23,0.00,,,0.00,WeatherDisplay:10.37,2013-04-15 08:50:00,
2013-04-15 01:54:00,62.6,24.2,29.37,SW,226,25.0,36.0,23,0.00,CLR,,0.00,WeatherDisplay:10.37,2013-04-15 08:54:00,
2013-04-15 02:00:00,62.3,25.0,29.37,SW,227,23.0,33.0,24,0.00,CLR,,0.00,WeatherDisplay:10.37,2013-04-15 09:00:00,
2013-04-15 02:05:00,62.6,24.2,29.37,SW,231,26.0,35.0,23,0.00,CLR,,0.00,WeatherDisplay:10.37,2013-04-15 09:05:00,
2013-04-15 02:10:00,62.6,25.2,29.37,SW,234,25.0,35.0,24,0.00,CLR,,0.00,WeatherDisplay:10.37,2013-04-15 09:10:00,
2013-04-15 02:15:00,62.3,25.0,29.37,SW,231,22.0,35.0,24,0.00,CLR,,0.00,WeatherDisplay:10.37,2013-04-15 09:15:00,
2013-04-15 02:20:00,62.6,24.2,29.37,SW,230,26.0,35.0,23,0.00,CLR,,0.00,WeatherDisplay:10.37,2013-04-15 09:20:00,
2013-04-15 02:25:00,62.5,24.2,29.38,SW,225,22.0,33.0,23,0.00,CLR,,0.00,WeatherDisplay:10.37,2013-04-15 09:25:00,
2013-04-15 02:30:00,62.3,24.0,29.37,SW,219,28.0,33.0,23,0.00,CLR,,0.00,WeatherDisplay:10.37,2013-04-15 09:30:00,
2013-04-15 02:40:00,62.6,24.2,29.37,SW,221,23.0,31.0,23,0.00,CLR,,0.00,WeatherDisplay:10.37,2013-04-15 09:40:00,
2013-04-15 02:50:00,62.6,24.2,29.37,SSW,211,25.0,32.0,23,0.00,CLR,,0.00,WeatherDisplay:10.37,2013-04-15 09:50:00,
2013-04-15 02:55:00,62.3,25.0,29.38,SSW,210,20.0,28.0,24,0.00,CLR,,0.00,WeatherDisplay:10.37,2013-04-15 09:55:00,
2013-04-15 03:00:00,62.4,24.1,29.39,SW,220,20.0,26.0,23,0.00,CLR,,0.00,WeatherDisplay:10.37,2013-04-15 10:00:00,
2013-04-15 03:05:00,62.4,24.1,29.38,SW,215,17.0,27.0,23,0.00,CLR,,0.00,WeatherDisplay:10.37,2013-04-15 10:05:00,
2013-04-15 03:10:00,62.0,24.8,29.37,SSW,202,23.0,32.0,24,0.00,CLR,,0.00,WeatherDisplay:10.37,2013-04-15 10:10:00,
2013-04-15 03:15:00,62.3,25.0,29.37,SW,216,21.0,28.0,24,0.00,CLR,,0.00,WeatherDisplay:10.37,2013-04-15 10:15:00,
2013-04-15 03:20:00,62.1,24.8,29.38,SW,221,23.0,30.0,24,0.00,CLR,,0.00,WeatherDisplay:10.37,2013-04-15 10:20:00,
2013-04-15 03:30:00,61.5,24.3,29.38,SW,214,15.0,25.0,24,0.00,CLR,,0.00,WeatherDisplay:10.37,2013-04-15 10:30:00,
2013-04-15 03:40:00,61.6,24.4,29.38,SW,220,18.0,27.0,24,0.00,CLR,,0.00,WeatherDisplay:10.37,2013-04-15 10:40:00,
2013-04-15 03:45:00,61.8,24.6,29.38,SSW,211,16.0,26.0,24,0.00,CLR,,0.00,WeatherDisplay:10.37,2013-04-15 10:45:00,
2013-04-15 03:50:00,61.6,24.4,29.38,SSW,202,14.0,21.0,24,0.00,CLR,,0.00,WeatherDisplay:10.37,2013-04-15 10:50:00,
2013-04-15 03:55:00,61.5,24.3,29.38,SW,217,17.0,25.0,24,0.00,CLR,,0.00,WeatherDisplay:10.37,2013-04-15 10:55:00,
2013-04-15 04:00:00,61.6,24.4,29.38,SW,222,14.0,27.0,24,0.00,CLR,,0.00,WeatherDisplay:10.37,2013-04-15 11:00:00,
2013-04-15 04:05:00,61.3,25.1,29.38,SW,218,23.0,29.0,25,0.00,CLR,,0.00,WeatherDisplay:10.37,2013-04-15 11:05:00,
2013-04-15 04:10:00,61.0,24.9,29.38,SW,216,22.0,29.0,25,0.00,CLR,,0.00,WeatherDisplay:10.37,2013-04-15 11:10:00,
2013-04-15 04:15:00,60.9,24.8,29.38,SW,220,20.0,28.0,25,0.00,CLR,,0.00,WeatherDisplay:10.37,2013-04-15 11:15:00,
2013-04-15 04:20:00,60.9,24.8,29.38,SW,219,20.0,28.0,25,0.00,CLR,,0.00,WeatherDisplay:10.37,2013-04-15 11:20:00,
2013-04-15 04:25:00,61.0,24.9,29.39,SW,222,20.0,25.0,25,0.00,CLR,,0.00,WeatherDisplay:10.37,2013-04-15 11:25:00,
2013-04-15 04:30:00,61.0,24.9,29.39,SW,223,18.0,29.0,25,0.00,CLR,,0.00,WeatherDisplay:10.37,2013-04-15 11:30:00,
2013-04-15 04:40:00,60.1,25.1,29.39,SW,230,20.0,28.0,26,0.00,CLR,,0.00,WeatherDisplay:10.37,2013-04-15 11:40:00,
2013-04-15 04:50:00,60.5,24.5,29.39,SSW,206,17.0,23.0,25,0.00,CLR,,0.00,WeatherDisplay:10.37,2013-04-15 11:50:00,
2013-04-15 05:00:00,60.5,24.5,29.39,SSW,212,16.0,23.0,25,0.00,CLR,,0.00,WeatherDisplay:10.37,2013-04-15 12:00:00,
2013-04-15 05:04:00,60.5,24.5,29.38,SW,217,21.0,28.0,25,0.00,CLR,,0.00,WeatherDisplay:10.37,2013-04-15 12:04:00,
2013-04-15 05:10:00,60.4,25.3,29.38,SW,221,22.0,30.0,26,0.00,CLR,,0.00,WeatherDisplay:10.37,2013-04-15 12:10:00,
2013-04-15 05:20:00,59.9,24.9,29.38,SW,216,21.0,29.0,26,0.00,CLR,,0.00,WeatherDisplay:10.37,2013-04-15 12:20:00,
2013-04-15 05:25:00,60.5,23.5,29.38,SW,221,21.0,30.0,24,0.00,CLR,,0.00,WeatherDisplay:10.37,2013-04-15 12:25:00,
2013-04-15 05:30:00,60.5,23.5,29.38,SW,221,16.0,27.0,24,0.00,CLR,,0.00,WeatherDisplay:10.37,2013-04-15 12:30:00,
2013-04-15 05:40:00,60.3,24.3,29.38,SW,235,20.0,33.0,25,0.00,CLR,,0.00,WeatherDisplay:10.37,2013-04-15 12:40:00,
2013-04-15 05:45:00,59.8,24.8,29.38,SW,235,23.0,35.0,26,0.00,CLR,,0.00,WeatherDisplay:10.37,2013-04-15 12:45:00,
2013-04-15 05:50:00,60.0,24.9,29.37,SW,231,22.0,33.0,26,0.00,CLR,,0.00,WeatherDisplay:10.37,2013-04-15 12:50:00,
2013-04-15 06:00:00,60.2,24.2,29.38,WSW,244,23.0,33.0,25,0.00,CLR,,0.00,WeatherDisplay:10.37,2013-04-15 13:00:00,
2013-04-15 06:10:00,60.1,25.1,29.38,WSW,246,24.0,33.0,26,0.00,CLR,,0.00,WeatherDisplay:10.37,2013-04-15 13:10:00,
2013-04-15 06:15:00,60.4,23.4,29.38,WSW,245,24.0,33.0,24,0.00,CLR,,0.00,WeatherDisplay:10.37,2013-04-15 13:15:00,
2013-04-15 06:20:00,59.9,23.9,29.38,WSW,244,21.0,33.0,25,0.00,CLR,,0.00,WeatherDisplay:10.37,2013-04-15 13:20:00,
2013-04-15 06:30:00,60.0,24.1,29.39,WSW,238,23.0,35.0,25,0.00,CLR,,0.00,WeatherDisplay:10.37,2013-04-15 13:30:00,
2013-04-15 06:35:00,59.8,24.8,29.39,WSW,245,23.0,32.0,26,0.00,CLR,,0.00,WeatherDisplay:10.37,2013-04-15 13:35:00,
2013-04-15 06:40:00,59.9,24.9,29.39,WSW,251,21.0,31.0,26,0.00,CLR,,0.00,WeatherDisplay:10.37,2013-04-15 13:40:00,
2013-04-15 06:50:00,60.1,25.1,29.40,WSW,245,20.0,29.0,26,0.00,CLR,,0.00,WeatherDisplay:10.37,2013-04-15 13:50:00,
2013-04-15 07:00:00,60.1,25.1,29.39,WSW,241,24.0,33.0,26,0.00,CLR,,0.00,WeatherDisplay:10.37,2013-04-15 14:00:00,
2013-04-15 07:05:00,60.1,25.1,29.40,WSW,240,22.0,32.0,26,0.00,CLR,,0.00,WeatherDisplay:10.37,2013-04-15 14:05:00,
2013-04-15 07:10:00,60.9,23.8,29.40,WSW,243,24.0,30.0,24,0.00,CLR,,0.00,WeatherDisplay:10.37,2013-04-15 14:10:00,
2013-04-15 07:15:00,60.5,24.5,29.40,WSW,247,24.0,33.0,25,0.00,CLR,,0.00,WeatherDisplay:10.37,2013-04-15 14:15:00,
2013-04-15 07:20:00,60.6,24.6,29.40,WSW,245,23.0,30.0,25,0.00,CLR,,0.00,WeatherDisplay:10.37,2013-04-15 14:20:00,
2013-04-15 07:25:00,61.1,24.0,29.41,WSW,243,24.0,31.0,24,0.00,CLR,,0.00,WeatherDisplay:10.37,2013-04-15 14:25:00,
2013-04-15 07:30:00,60.7,26.5,29.41,WSW,239,20.0,27.0,27,0.00,CLR,,0.00,WeatherDisplay:10.37,2013-04-15 14:30:00,
2013-04-15 07:40:00,61.3,25.1,29.41,SW,235,22.0,27.0,25,0.00,CLR,,0.00,WeatherDisplay:10.37,2013-04-15 14:40:00,
2013-04-15 07:45:00,61.6,24.4,29.41,SW,232,22.0,26.0,24,0.00,CLR,,0.00,WeatherDisplay:10.37,2013-04-15 14:45:00,
2013-04-15 07:50:00,62.2,23.9,29.41,WSW,237,17.0,27.0,23,0.00,CLR,,0.00,WeatherDisplay:10.37,2013-04-15 14:50:00,
2013-04-15 08:00:00,62.6,24.2,29.41,WSW,246,22.0,27.0,23,0.00,CLR,,0.00,WeatherDisplay:10.37,2013-04-15 15:00:00,
2013-04-15 08:04:00,63.0,24.6,29.41,WSW,244,18.0,28.0,23,0.00,CLR,,0.00,WeatherDisplay:10.37,2013-04-15 15:04:00,
2013-04-15 08:10:00,63.1,24.7,29.41,WSW,244,22.0,30.0,23,0.00,CLR,,0.00,WeatherDisplay:10.37,2013-04-15 15:10:00,
2013-04-15 08:20:00,63.7,24.1,29.41,SW,232,17.0,24.0,22,0.00,CLR,,0.00,WeatherDisplay:10.37,2013-04-15 15:20:00,
2013-04-15 08:25:00,63.5,25.0,29.40,SW,236,24.0,33.0,23,0.00,CLR,,0.00,WeatherDisplay:10.37,2013-04-15 15:25:00,
2013-04-15 08:30:00,64.6,23.8,29.41,WSW,240,16.0,27.0,21,0.00,CLR,,0.00,WeatherDisplay:10.37,2013-04-15 15:30:00,
2013-04-15 08:40:00,64.2,23.4,29.42,SW,236,20.0,28.0,21,0.00,CLR,,0.00,WeatherDisplay:10.37,2013-04-15 15:40:00,
2013-04-15 08:44:00,65.0,22.9,29.41,SW,234,21.0,26.0,20,0.00,CLR,,0.00,WeatherDisplay:10.37,2013-04-15 15:44:00,
2013-04-15 08:50:00,65.0,24.1,29.41,SW,233,22.0,28.0,21,0.00,CLR,,0.00,WeatherDisplay:10.37,2013-04-15 15:50:00,
2013-04-15 08:55:00,64.8,23.9,29.40,SW,226,23.0,31.0,21,0.00,CLR,,0.00,WeatherDisplay:10.37,2013-04-15 15:55:00,
2013-04-15 09:00:00,65.7,22.3,29.40,SW,233,24.0,29.0,19,0.00,CLR,,0.00,WeatherDisplay:10.37,2013-04-15 16:00:00,
2013-04-15 09:15:00,66.6,24.2,29.40,SW,231,16.0,24.0,20,0.00,CLR,,0.00,WeatherDisplay:10.37,2013-04-15 16:15:00,
2013-04-15 09:20:00,67.1,23.4,29.41,SW,230,21.0,28.0,19,0.00,CLR,,0.00,WeatherDisplay:10.37,2013-04-15 16:20:00,
2013-04-15 09:30:00,66.9,23.2,29.42,SW,216,16.0,24.0,19,0.00,CLR,,0.00,WeatherDisplay:10.37,2013-04-15 16:30:00,
2013-04-15 09:40:00,67.8,24.0,29.41,SW,224,13.0,22.0,19,0.00,CLR,,0.00,WeatherDisplay:10.37,2013-04-15 16:40:00,
2013-04-15 09:50:00,68.7,23.5,29.41,SW,217,14.0,21.0,18,0.00,CLR,,0.00,WeatherDisplay:10.37,2013-04-15 16:50:00,
2013-04-15 09:55:00,68.4,24.5,29.41,SSW,202,15.0,21.0,19,0.00,CLR,,0.00,WeatherDisplay:10.37,2013-04-15 16:55:00,
2013-04-15 10:00:00,69.0,22.3,29.41,SSW,212,14.0,21.0,17,0.00,CLR,,0.00,WeatherDisplay:10.37,2013-04-15 17:00:00,
2013-04-15 10:04:00,69.3,22.6,29.41,SSW,213,14.0,21.0,17,0.00,CLR,,0.00,WeatherDisplay:10.37,2013-04-15 17:04:00,
2013-04-15 10:10:00,70.2,20.3,29.39,SW,226,20.0,30.0,15,0.00,CLR,,0.00,WeatherDisplay:10.37,2013-04-15 17:10:00,
2013-04-15 10:14:00,70.6,22.2,29.40,WSW,237,20.0,25.0,16,0.00,CLR,,0.00,WeatherDisplay:10.37,2013-04-15 17:14:00,
2013-04-15 10:20:00,70.1,21.8,29.40,SW,219,14.0,22.0,16,0.00,CLR,,0.00,WeatherDisplay:10.37,2013-04-15 17:20:00,
2013-04-15 10:30:00,70.9,22.4,29.40,SW,214,17.0,22.0,16,0.00,CLR,,0.00,WeatherDisplay:10.37,2013-04-15 17:30:00,
2013-04-15 10:34:00,70.2,26.0,29.41,SSW,194,7.0,23.0,19,0.00,CLR,,0.00,WeatherDisplay:10.37,2013-04-15 17:34:00,
2013-04-15 10:40:00,70.6,22.2,29.40,SSW,201,20.0,24.0,16,0.00,CLR,,0.00,WeatherDisplay:10.37,2013-04-15 17:40:00,
2013-04-15 10:44:00,70.8,23.8,29.41,SSW,209,14.0,25.0,17,0.00,CLR,,0.00,WeatherDisplay:10.37,2013-04-15 17:44:00,
2013-04-15 10:50:00,70.8,25.2,29.40,SSW,207,14.0,24.0,18,0.00,CLR,,0.00,WeatherDisplay:10.37,2013-04-15 17:50:00,
2013-04-15 11:04:00,71.1,24.0,29.40,SW,221,20.0,24.0,17,0.00,CLR,,0.00,WeatherDisplay:10.37,2013-04-15 18:04:00,
2013-04-15 11:10:00,71.8,25.9,29.40,SW,229,16.0,26.0,18,0.00,CLR,,0.00,WeatherDisplay:10.37,2013-04-15 18:10:00,
2013-04-15 11:15:00,71.5,24.4,29.40,SW,223,21.0,26.0,17,0.00,CLR,,0.00,WeatherDisplay:10.37,2013-04-15 18:15:00,
2013-04-15 11:20:00,72.0,24.8,29.39,SW,224,20.0,31.0,17,0.00,CLR,,0.00,WeatherDisplay:10.37,2013-04-15 18:20:00,
2013-04-15 11:25:00,71.6,24.5,29.39,SW,230,21.0,28.0,17,0.00,CLR,,0.00,WeatherDisplay:10.37,2013-04-15 18:25:00,
2013-04-15 11:30:00,72.3,25.0,29.38,WSW,242,24.0,29.0,17,0.00,CLR,,0.00,WeatherDisplay:10.37,2013-04-15 18:30:00,
2013-04-15 11:34:00,71.8,26.0,29.38,SW,235,24.0,32.0,18,0.00,CLR,,0.00,WeatherDisplay:10.37,2013-04-15 18:34:00,
2013-04-15 11:40:00,73.0,24.1,29.38,SW,236,23.0,35.0,16,0.00,CLR,,0.00,WeatherDisplay:10.37,2013-04-15 18:40:00,
2013-04-15 11:50:00,72.5,25.2,29.38,WSW,237,25.0,33.0,17,0.00,CLR,,0.00,WeatherDisplay:10.37,2013-04-15 18:50:00,
2013-04-15 11:55:00,72.0,26.1,29.37,SW,236,25.0,33.0,18,0.00,CLR,,0.00,WeatherDisplay:10.37,2013-04-15 18:55:00,
2013-04-15 12:00:00,73.0,27.0,29.37,WSW,239,25.0,32.0,18,0.00,CLR,,0.00,WeatherDisplay:10.37,2013-04-15 19:00:00,
2013-04-15 12:10:00,73.1,25.7,29.37,SW,231,23.0,33.0,17,0.00,CLR,,0.00,WeatherDisplay:10.37,2013-04-15 19:10:00,
2013-04-15 12:20:00,72.3,26.4,29.37,SW,229,28.0,33.0,18,0.00,CLR,,0.00,WeatherDisplay:10.37,2013-04-15 19:20:00,
2013-04-15 12:30:00,73.2,25.7,29.37,SW,228,29.0,36.0,17,0.00,,,0.00,WeatherDisplay:10.37,2013-04-15 19:30:00,
2013-04-15 12:35:00,72.7,26.7,29.37,SW,230,26.0,36.0,18,0.00,,,0.00,WeatherDisplay:10.37,2013-04-15 19:35:00,
2013-04-15 12:40:00,72.4,26.4,29.37,SW,233,30.0,35.0,18,0.00,,,0.00,WeatherDisplay:10.37,2013-04-15 19:40:00,
2013-04-15 12:44:00,73.0,24.1,29.37,SW,236,30.0,35.0,16,0.00,,,0.00,WeatherDisplay:10.37,2013-04-15 19:44:00,
2013-04-15 13:00:00,73.0,25.5,29.37,SW,228,31.0,39.0,17,0.00,,,0.00,WeatherDisplay:10.37,2013-04-15 20:00:00,
2013-04-15 13:05:00,73.0,25.6,29.37,SW,231,29.0,35.0,17,0.00,,,0.00,WeatherDisplay:10.37,2013-04-15 20:05:00,
2013-04-15 13:10:00,72.8,25.4,29.38,WSW,239,25.0,36.0,17,0.00,CLR,,0.00,WeatherDisplay:10.37,2013-04-15 20:10:00,
2013-04-15 13:14:00,72.2,24.9,29.38,WSW,242,31.0,37.0,17,0.00,,,0.00,WeatherDisplay:10.37,2013-04-15 20:14:00,
2013-04-15 13:20:00,72.0,24.8,29.38,SW,236,31.0,35.0,17,0.00,,,0.00,WeatherDisplay:10.37,2013-04-15 20:20:00,
2013-04-15 13:25:00,72.0,24.7,29.38,SW,230,31.0,37.0,17,0.00,,,0.00,WeatherDisplay:10.37,2013-04-15 20:25:00,
2013-04-15 13:30:00,72.1,24.9,29.38,SW,235,26.0,36.0,17,0.00,CLR,,0.00,WeatherDisplay:10.37,2013-04-15 20:30:00,
2013-04-15 13:40:00,70.9,23.9,29.38,SW,226,32.0,39.0,17,0.00,,,0.00,WeatherDisplay:10.37,2013-04-15 20:40:00,
2013-04-15 13:45:00,71.3,25.6,29.38,SW,225,32.0,40.0,18,0.00,,,0.00,WeatherDisplay:10.37,2013-04-15 20:45:00,
2013-04-15 13:50:00,70.6,23.6,29.38,SW,233,32.0,41.0,17,0.00,,,0.00,WeatherDisplay:10.37,2013-04-15 20:50:00,
2013-04-15 14:00:00,70.4,23.5,29.38,SW,230,32.0,43.0,17,0.00,,,0.00,WeatherDisplay:10.37,2013-04-15 21:00:00,
2013-04-15 14:10:00,71.5,22.9,29.38,SW,231,29.0,40.0,16,0.00,,,0.00,WeatherDisplay:10.37,2013-04-15 21:10:00,
2013-04-15 14:15:00,71.1,22.6,29.38,WSW,239,29.0,38.0,16,0.00,,,0.00,WeatherDisplay:10.37,2013-04-15 21:15:00,
2013-04-15 14:20:00,71.0,22.5,29.38,WSW,238,31.0,39.0,16,0.00,,,0.00,WeatherDisplay:10.37,2013-04-15 21:20:00,
2013-04-15 14:30:00,70.9,20.9,29.39,SW,235,28.0,39.0,15,0.00,CLR,,0.00,WeatherDisplay:10.37,2013-04-15 21:30:00,
2013-04-15 14:40:00,70.4,22.0,29.39,SW,236,29.0,37.0,16,0.00,,,0.00,WeatherDisplay:10.37,2013-04-15 21:40:00,
2013-04-15 14:50:00,70.8,20.8,29.39,WSW,238,29.0,36.0,15,0.00,,,0.00,WeatherDisplay:10.37,2013-04-15 21:50:00,
2013-04-15 14:54:00,71.0,21.0,29.39,WSW,237,25.0,39.0,15,0.00,CLR,,0.00,WeatherDisplay:10.37,2013-04-15 21:54:00,
2013-04-15 15:00:00,70.6,20.7,29.38,WSW,237,25.0,40.0,15,0.00,,,0.00,WeatherDisplay:10.37,2013-04-15 22:00:00,
2013-04-15 15:05:00,70.8,20.8,29.39,SW,233,28.0,38.0,15,0.00,,,0.00,WeatherDisplay:10.37,2013-04-15 22:05:00,
2013-04-15 15:10:00,70.7,20.7,29.38,SW,233,29.0,40.0,15,0.00,,,0.00,WeatherDisplay:10.37,2013-04-15 22:10:00,
2013-04-15 15:20:00,70.4,20.5,29.38,SW,229,29.0,37.0,15,0.00,,,0.00,WeatherDisplay:10.37,2013-04-15 22:20:00,
2013-04-15 15:25:00,69.9,21.6,29.39,SW,228,30.0,38.0,16,0.00,,,0.00,WeatherDisplay:10.37,2013-04-15 22:25:00,
2013-04-15 15:30:00,70.3,20.4,29.39,SW,230,25.0,38.0,15,0.00,,,0.00,WeatherDisplay:10.37,2013-04-15 22:30:00,
2013-04-15 15:40:00,69.9,20.1,29.39,SW,226,29.0,40.0,15,0.00,,,0.00,WeatherDisplay:10.37,2013-04-15 22:40:00,
2013-04-15 15:50:00,69.3,19.6,29.40,SW,224,28.0,41.0,15,0.00,CLR,,0.00,WeatherDisplay:10.37,2013-04-15 22:50:00,
2013-04-15 15:54:00,69.1,19.5,29.39,SW,221,29.0,45.0,15,0.00,,,0.00,WeatherDisplay:10.37,2013-04-15 22:54:00,
2013-04-15 16:00:00,69.3,19.6,29.39,SW,223,32.0,39.0,15,0.00,,,0.00,WeatherDisplay:10.37,2013-04-15 23:00:00,
2013-04-15 16:10:00,68.8,19.2,29.40,SSW,208,31.0,35.0,15,0.00,,,0.00,WeatherDisplay:10.37,2013-04-15 23:10:00,
2013-04-15 16:20:00,68.8,17.6,29.40,SW,223,28.0,39.0,14,0.00,,,0.00,WeatherDisplay:10.37,2013-04-15 23:20:00,
2013-04-15 16:30:00,68.6,17.5,29.40,SW,219,32.0,39.0,14,0.00,,,0.00,WeatherDisplay:10.37,2013-04-15 23:30:00,
2013-04-15 16:40:00,68.3,17.2,29.40,SW,219,29.0,38.0,14,0.00,,,0.00,WeatherDisplay:10.37,2013-04-15 23:40:00,
2013-04-15 16:50:00,68.4,18.9,29.40,SW,215,26.0,33.0,15,0.00,,,0.00,WeatherDisplay:10.37,2013-04-15 23:50:00,
2013-04-15 16:55:00,67.9,18.5,29.41,SSW,212,25.0,33.0,15,0.00,CLR,,0.00,WeatherDisplay:10.37,2013-04-15 23:55:00,
2013-04-15 17:00:00,67.6,21.2,29.41,SW,216,25.0,37.0,17,0.00,,,0.00,WeatherDisplay:10.37,2013-04-16 00:00:00,
2013-04-15 17:04:00,67.1,17.9,29.41,SW,218,28.0,40.0,15,0.00,,,0.00,WeatherDisplay:10.37,2013-04-16 00:04:00,
2013-04-15 17:10:00,66.5,18.9,29.41,SW,217,30.0,38.0,16,0.00,,,0.00,WeatherDisplay:10.37,2013-04-16 00:10:00,
2013-04-15 17:15:00,66.4,17.3,29.42,SW,217,26.0,36.0,15,0.00,,,0.00,WeatherDisplay:10.37,2013-04-16 00:15:00,
2013-04-15 17:20:00,66.3,20.2,29.41,SW,215,22.0,37.0,17,0.00,CLR,,0.00,WeatherDisplay:10.37,2013-04-16 00:20:00,
2013-04-15 17:30:00,65.3,21.9,29.41,SW,216,31.0,39.0,19,0.00,,,0.00,WeatherDisplay:10.37,2013-04-16 00:30:00,
2013-04-15 17:40:00,64.6,21.4,29.41,SW,218,35.0,43.0,19,0.00,,,0.00,WeatherDisplay:10.37,2013-04-16 00:40:00,
2013-04-15 17:50:00,64.0,22.1,29.42,SW,214,29.0,39.0,20,0.00,,,0.00,WeatherDisplay:10.37,2013-04-16 00:50:00,
2013-04-15 18:00:00,63.7,20.6,29.42,SW,217,30.0,43.0,19,0.00,,,0.00,WeatherDisplay:10.37,2013-04-16 01:00:00,
2013-04-15 18:04:00,63.5,22.8,29.42,SW,219,30.0,38.0,21,0.00,,,0.00,WeatherDisplay:10.37,2013-04-16 01:04:00,
2013-04-15 18:10:00,63.1,22.5,29.42,SSW,211,32.0,39.0,21,0.00,,,0.00,WeatherDisplay:10.37,2013-04-16 01:10:00,
2013-04-15 18:20:00,62.5,23.1,29.42,SW,217,31.0,41.0,22,0.00,,,0.00,WeatherDisplay:10.37,2013-04-16 01:20:00,
2013-04-15 18:24:00,62.3,22.9,29.42,SW,217,30.0,39.0,22,0.00,,,0.00,WeatherDisplay:10.37,2013-04-16 01:24:00,
2013-04-15 18:30:00,62.1,22.8,29.42,SW,219,28.0,36.0,22,0.00,,,0.00,WeatherDisplay:10.37,2013-04-16 01:30:00,
2013-04-15 18:40:00,61.5,23.3,29.42,SW,217,29.0,39.0,23,0.00,,,0.00,WeatherDisplay:10.37,2013-04-16 01:40:00,
2013-04-15 18:45:00,61.1,21.9,29.44,SW,222,26.0,39.0,22,0.00,CLR,,0.00,WeatherDisplay:10.37,2013-04-16 01:45:00,
2013-04-15 18:50:00,60.6,23.6,29.43,SW,221,26.0,36.0,24,0.00,,,0.00,WeatherDisplay:10.37,2013-04-16 01:50:00,
2013-04-15 19:00:00,60.1,23.2,29.44,SW,222,28.0,39.0,24,0.00,,,0.00,WeatherDisplay:10.37,2013-04-16 02:00:00,
2013-04-15 19:04:00,59.9,23.9,29.44,SW,223,33.0,48.0,25,0.00,,,0.00,WeatherDisplay:10.37,2013-04-16 02:04:00,
2013-04-15 19:10:00,59.6,23.7,29.44,SW,223,31.0,39.0,25,0.00,,,0.00,WeatherDisplay:10.37,2013-04-16 02:10:00,
2013-04-15 19:20:00,59.3,23.4,29.44,SW,231,30.0,43.0,25,0.00,,,0.00,WeatherDisplay:10.37,2013-04-16 02:20:00,
2013-04-15 19:30:00,58.9,24.9,29.44,SW,221,30.0,43.0,27,0.00,,,0.00,WeatherDisplay:10.37,2013-04-16 02:30:00,
2013-04-15 19:40:00,58.9,22.1,29.44,SW,225,30.0,36.0,24,0.00,,,0.00,WeatherDisplay:10.37,2013-04-16 02:40:00,
2013-04-15 19:50:00,58.9,23.1,29.44,SW,230,28.0,37.0,25,0.00,,,0.00,WeatherDisplay:10.37,2013-04-16 02:50:00,
2013-04-15 20:00:00,58.6,22.8,29.45,SW,233,26.0,37.0,25,0.00,,,0.00,WeatherDisplay:10.37,2013-04-16 03:00:00,
2013-04-15 20:04:00,58.2,24.3,29.44,SW,232,25.0,40.0,27,0.00,,,0.00,WeatherDisplay:10.37,2013-04-16 03:04:00,
2013-04-15 20:10:00,58.1,23.3,29.44,SW,227,24.0,35.0,26,0.00,CLR,,0.00,WeatherDisplay:10.37,2013-04-16 03:10:00,
2013-04-15 20:20:00,57.9,24.1,29.44,SW,232,31.0,40.0,27,0.00,,,0.00,WeatherDisplay:10.37,2013-04-16 03:20:00,
2013-04-15 20:30:00,57.6,24.7,29.44,SW,231,26.0,35.0,28,0.00,CLR,,0.00,WeatherDisplay:10.37,2013-04-16 03:30:00,
2013-04-15 20:40:00,57.8,24.9,29.45,WSW,242,23.0,33.0,28,0.00,CLR,,0.00,WeatherDisplay:10.37,2013-04-16 03:40:00,
2013-04-15 20:50:00,58.0,24.2,29.45,WSW,239,24.0,32.0,27,0.00,CLR,,0.00,WeatherDisplay:10.37,2013-04-16 03:50:00,
2013-04-15 20:54:00,58.0,24.2,29.45,WSW,240,29.0,35.0,27,0.00,,,0.00,WeatherDisplay:10.37,2013-04-16 03:54:00,
2013-04-15 21:00:00,58.1,23.3,29.45,WSW,237,29.0,43.0,26,0.00,,,0.00,WeatherDisplay:10.37,2013-04-16 04:00:00,
2013-04-15 21:04:00,57.6,23.8,29.46,WSW,242,25.0,32.0,27,0.00,CLR,,0.00,WeatherDisplay:10.37,2013-04-16 04:04:00,
2013-04-15 21:10:00,57.6,23.8,29.46,WSW,246,22.0,33.0,27,0.00,CLR,,0.00,WeatherDisplay:10.37,2013-04-16 04:10:00,
2013-04-15 21:20:00,57.3,23.6,29.45,SW,233,23.0,33.0,27,0.00,CLR,,0.00,WeatherDisplay:10.37,2013-04-16 04:20:00,
2013-04-15 21:24:00,57.4,22.8,29.44,SW,232,28.0,35.0,26,0.00,,,0.00,WeatherDisplay:10.37,2013-04-16 04:24:00,
2013-04-15 21:30:00,57.6,22.9,29.44,SW,233,29.0,37.0,26,0.00,,,0.00,WeatherDisplay:10.37,2013-04-16 04:30:00,
2013-04-15 21:40:00,57.3,22.7,29.45,WSW,240,25.0,33.0,26,0.00,CLR,,0.00,WeatherDisplay:10.37,2013-04-16 04:40:00,
2013-04-15 21:50:00,57.3,20.8,29.46,WSW,243,23.0,33.0,24,0.00,CLR,,0.00,WeatherDisplay:10.37,2013-04-16 04:50:00,
2013-04-15 22:00:00,57.2,22.6,29.46,WSW,245,24.0,32.0,26,0.00,CLR,,0.00,WeatherDisplay:10.37,2013-04-16 05:00:00,
2013-04-15 22:04:00,57.2,23.5,29.46,SW,236,26.0,33.0,27,0.00,CLR,,0.00,WeatherDisplay:10.37,2013-04-16 05:04:00,
2013-04-15 22:10:00,57.2,23.5,29.46,WSW,240,23.0,36.0,27,0.00,CLR,,0.00,WeatherDisplay:10.37,2013-04-16 05:10:00,
2013-04-15 22:20:00,56.9,22.3,29.46,WSW,247,26.0,32.0,26,0.00,CLR,,0.00,WeatherDisplay:10.37,2013-04-16 05:20:00,
2013-04-15 22:30:00,57.0,23.3,29.45,WSW,251,25.0,32.0,27,0.00,CLR,,0.00,WeatherDisplay:10.37,2013-04-16 05:30:00,
2013-04-15 22:40:00,57.3,21.7,29.46,WSW,241,21.0,31.0,25,0.00,CLR,,0.00,WeatherDisplay:10.37,2013-04-16 05:40:00,
2013-04-15 22:50:00,56.2,23.5,29.46,WSW,239,18.0,29.0,28,0.00,CLR,,0.00,WeatherDisplay:10.37,2013-04-16 05:50:00,
2013-04-15 23:00:00,56.6,23.0,29.47,WSW,245,22.0,28.0,27,0.00,CLR,,0.00,WeatherDisplay:10.37,2013-04-16 06:00:00,
2013-04-15 23:05:00,55.7,24.7,29.46,WSW,241,25.0,35.0,30,0.00,CLR,,0.00,WeatherDisplay:10.37,2013-04-16 06:05:00,
2013-04-15 23:10:00,55.9,24.1,29.47,WSW,245,22.0,28.0,29,0.00,CLR,,0.00,WeatherDisplay:10.37,2013-04-16 06:10:00,
2013-04-15 23:14:00,55.6,25.4,29.48,WSW,244,15.0,31.0,31,0.00,CLR,,0.00,WeatherDisplay:10.37,2013-04-16 06:14:00,
2013-04-15 23:20:00,55.6,23.8,29.47,WSW,241,23.0,29.0,29,0.00,CLR,,0.00,WeatherDisplay:10.37,2013-04-16 06:20:00,
2013-04-15 23:25:00,55.9,24.0,29.48,WSW,244,18.0,33.0,29,0.00,CLR,,0.00,WeatherDisplay:10.37,2013-04-16 06:25:00,
2013-04-15 23:30:00,55.4,24.4,29.48,WSW,247,15.0,22.0,30,0.00,CLR,,0.00,WeatherDisplay:10.37,2013-04-16 06:30:00,
2013-04-15 23:40:00,54.7,24.6,29.48,SW,227,20.0,27.0,31,0.00,CLR,,0.00,WeatherDisplay:10.37,2013-04-16 06:40:00,
2013-04-15 23:50:00,54.5,25.2,29.48,WSW,237,17.0,28.0,32,0.00,CLR,,0.00,WeatherDisplay:10.37,2013-04-16 06:50:00,